sensor_id;sensor_type;location;lat;lon;timestamp;P1;durP1;ratioP1;P2;durP2;ratioP2
54157;SDS011;40065;49.894;10.358;2023-09-30T00:03:18;22.10;;;7.88;;
54157;SDS011;40065;49.894;10.358;2023-09-30T00:08:20;22.23;;;7.60;;
54157;SDS011;40065;49.894;10.358;2023-09-30T00:13:21;20.27;;;7.45;;
54157;SDS011;40065;49.894;10.358;2023-09-30T00:18:24;21.60;;;7.55;;
54157;SDS011;40065;49.894;10.358;2023-09-30T00:23:26;20.88;;;7.97;;
54157;SDS011;40065;49.894;10.358;2023-09-30T00:28:28;20.95;;;7.10;;
54157;SDS011;40065;49.894;10.358;2023-09-30T00:33:30;17.80;;;7.63;;
54157;SDS011;40065;49.894;10.358;2023-09-30T00:38:32;15.73;;;6.40;;
54157;SDS011;40065;49.894;10.358;2023-09-30T00:43:34;17.27;;;6.47;;
54157;SDS011;40065;49.894;10.358;2023-09-30T00:48:36;13.27;;;5.40;;
54157;SDS011;40065;49.894;10.358;2023-09-30T00:53:39;8.40;;;3.40;;
54157;SDS011;40065;49.894;10.358;2023-09-30T00:58:41;8.10;;;2.80;;
54157;SDS011;40065;49.894;10.358;2023-09-30T01:03:44;8.60;;;3.10;;
54157;SDS011;40065;49.894;10.358;2023-09-30T01:08:47;6.40;;;3.05;;
54157;SDS011;40065;49.894;10.358;2023-09-30T01:13:49;7.65;;;3.55;;
54157;SDS011;40065;49.894;10.358;2023-09-30T01:18:51;8.73;;;3.95;;
54157;SDS011;40065;49.894;10.358;2023-09-30T01:23:54;12.63;;;4.20;;
54157;SDS011;40065;49.894;10.358;2023-09-30T01:28:56;10.00;;;4.38;;
54157;SDS011;40065;49.894;10.358;2023-09-30T01:33:58;10.68;;;4.32;;
54157;SDS011;40065;49.894;10.358;2023-09-30T01:39:00;9.20;;;3.50;;
54157;SDS011;40065;49.894;10.358;2023-09-30T01:44:04;6.70;;;2.93;;
54157;SDS011;40065;49.894;10.358;2023-09-30T01:49:06;7.93;;;3.53;;
54157;SDS011;40065;49.894;10.358;2023-09-30T01:54:08;6.55;;;3.03;;
54157;SDS011;40065;49.894;10.358;2023-09-30T01:59:10;5.97;;;2.75;;
54157;SDS011;40065;49.894;10.358;2023-09-30T02:04:12;10.98;;;3.50;;
54157;SDS011;40065;49.894;10.358;2023-09-30T02:09:16;7.63;;;2.83;;
54157;SDS011;40065;49.894;10.358;2023-09-30T02:14:20;4.40;;;2.05;;
54157;SDS011;40065;49.894;10.358;2023-09-30T02:19:22;3.92;;;2.20;;
54157;SDS011;40065;49.894;10.358;2023-09-30T02:24:24;3.60;;;1.48;;
54157;SDS011;40065;49.894;10.358;2023-09-30T02:29:26;4.80;;;1.73;;
54157;SDS011;40065;49.894;10.358;2023-09-30T02:34:29;5.00;;;1.45;;
54157;SDS011;40065;49.894;10.358;2023-09-30T02:39:32;3.13;;;1.27;;
54157;SDS011;40065;49.894;10.358;2023-09-30T02:44:33;5.30;;;1.60;;
54157;SDS011;40065;49.894;10.358;2023-09-30T02:49:36;4.57;;;1.58;;
54157;SDS011;40065;49.894;10.358;2023-09-30T02:54:38;4.30;;;1.30;;
54157;SDS011;40065;49.894;10.358;2023-09-30T02:59:40;5.90;;;1.67;;
54157;SDS011;40065;49.894;10.358;2023-09-30T03:04:42;4.28;;;1.65;;
54157;SDS011;40065;49.894;10.358;2023-09-30T03:09:44;4.75;;;1.77;;
54157;SDS011;40065;49.894;10.358;2023-09-30T03:14:46;4.70;;;1.75;;
54157;SDS011;40065;49.894;10.358;2023-09-30T03:19:48;3.95;;;1.20;;
54157;SDS011;40065;49.894;10.358;2023-09-30T03:24:51;6.50;;;2.30;;
54157;SDS011;40065;49.894;10.358;2023-09-30T03:29:55;4.63;;;1.40;;
54157;SDS011;40065;49.894;10.358;2023-09-30T03:34:57;4.80;;;1.38;;
54157;SDS011;40065;49.894;10.358;2023-09-30T03:40:02;4.22;;;1.60;;
54157;SDS011;40065;49.894;10.358;2023-09-30T03:45:13;3.58;;;1.35;;
54157;SDS011;40065;49.894;10.358;2023-09-30T03:50:15;4.43;;;1.50;;
54157;SDS011;40065;49.894;10.358;2023-09-30T03:55:17;3.58;;;1.45;;
54157;SDS011;40065;49.894;10.358;2023-09-30T04:00:22;4.18;;;1.77;;
54157;SDS011;40065;49.894;10.358;2023-09-30T04:05:25;4.50;;;1.42;;
54157;SDS011;40065;49.894;10.358;2023-09-30T04:10:30;3.28;;;1.30;;
54157;SDS011;40065;49.894;10.358;2023-09-30T04:15:33;5.47;;;1.50;;
54157;SDS011;40065;49.894;10.358;2023-09-30T04:20:38;5.95;;;1.58;;
54157;SDS011;40065;49.894;10.358;2023-09-30T04:25:41;2.95;;;1.30;;
54157;SDS011;40065;49.894;10.358;2023-09-30T04:30:44;3.03;;;1.20;;
54157;SDS011;40065;49.894;10.358;2023-09-30T04:35:46;4.70;;;1.40;;
54157;SDS011;40065;49.894;10.358;2023-09-30T04:40:48;5.57;;;1.60;;
54157;SDS011;40065;49.894;10.358;2023-09-30T04:50:56;5.60;;;1.73;;
54157;SDS011;40065;49.894;10.358;2023-09-30T04:55:58;4.75;;;1.55;;
54157;SDS011;40065;49.894;10.358;2023-09-30T05:01:00;4.90;;;1.33;;
54157;SDS011;40065;49.894;10.358;2023-09-30T05:06:03;7.50;;;1.92;;
54157;SDS011;40065;49.894;10.358;2023-09-30T05:11:05;4.03;;;1.60;;
54157;SDS011;40065;49.894;10.358;2023-09-30T05:16:06;4.47;;;1.70;;
54157;SDS011;40065;49.894;10.358;2023-09-30T05:21:09;5.45;;;1.63;;
54157;SDS011;40065;49.894;10.358;2023-09-30T05:26:11;4.55;;;1.52;;
54157;SDS011;40065;49.894;10.358;2023-09-30T05:31:13;4.15;;;1.90;;
54157;SDS011;40065;49.894;10.358;2023-09-30T05:36:15;4.95;;;1.95;;
54157;SDS011;40065;49.894;10.358;2023-09-30T05:41:17;4.10;;;1.98;;
54157;SDS011;40065;49.894;10.358;2023-09-30T05:46:22;8.68;;;2.55;;
54157;SDS011;40065;49.894;10.358;2023-09-30T05:51:23;7.25;;;1.92;;
54157;SDS011;40065;49.894;10.358;2023-09-30T05:56:25;9.00;;;2.17;;
54157;SDS011;40065;49.894;10.358;2023-09-30T06:01:28;4.97;;;2.05;;
54157;SDS011;40065;49.894;10.358;2023-09-30T06:06:30;3.30;;;1.60;;
54157;SDS011;40065;49.894;10.358;2023-09-30T06:11:32;4.28;;;1.75;;
54157;SDS011;40065;49.894;10.358;2023-09-30T06:16:34;5.55;;;2.15;;
54157;SDS011;40065;49.894;10.358;2023-09-30T06:21:36;5.40;;;2.08;;
54157;SDS011;40065;49.894;10.358;2023-09-30T06:26:38;6.93;;;2.20;;
54157;SDS011;40065;49.894;10.358;2023-09-30T06:31:40;5.32;;;2.28;;
54157;SDS011;40065;49.894;10.358;2023-09-30T06:36:42;6.80;;;2.17;;
54157;SDS011;40065;49.894;10.358;2023-09-30T06:41:44;4.53;;;1.90;;
54157;SDS011;40065;49.894;10.358;2023-09-30T06:46:47;5.75;;;1.58;;
54157;SDS011;40065;49.894;10.358;2023-09-30T06:51:51;5.65;;;1.95;;
54157;SDS011;40065;49.894;10.358;2023-09-30T06:56:54;6.60;;;2.22;;
54157;SDS011;40065;49.894;10.358;2023-09-30T07:01:55;7.95;;;1.60;;
54157;SDS011;40065;49.894;10.358;2023-09-30T07:06:57;5.30;;;1.58;;
54157;SDS011;40065;49.894;10.358;2023-09-30T07:11:59;7.05;;;1.70;;
54157;SDS011;40065;49.894;10.358;2023-09-30T07:17:01;5.05;;;1.40;;
54157;SDS011;40065;49.894;10.358;2023-09-30T07:22:05;6.28;;;1.90;;
54157;SDS011;40065;49.894;10.358;2023-09-30T07:27:07;5.65;;;1.95;;
54157;SDS011;40065;49.894;10.358;2023-09-30T07:32:28;4.25;;;1.60;;
54157;SDS011;40065;49.894;10.358;2023-09-30T07:37:30;7.10;;;1.77;;
54157;SDS011;40065;49.894;10.358;2023-09-30T07:42:31;5.28;;;1.88;;
54157;SDS011;40065;49.894;10.358;2023-09-30T07:47:35;4.85;;;1.85;;
54157;SDS011;40065;49.894;10.358;2023-09-30T07:52:37;6.05;;;1.85;;
54157;SDS011;40065;49.894;10.358;2023-09-30T07:57:41;4.22;;;1.80;;
54157;SDS011;40065;49.894;10.358;2023-09-30T08:02:45;7.60;;;1.75;;
54157;SDS011;40065;49.894;10.358;2023-09-30T08:07:47;6.13;;;1.77;;
54157;SDS011;40065;49.894;10.358;2023-09-30T08:12:48;5.40;;;1.85;;
54157;SDS011;40065;49.894;10.358;2023-09-30T08:17:51;8.00;;;3.80;;
54157;SDS011;40065;49.894;10.358;2023-09-30T08:22:53;6.85;;;1.70;;
54157;SDS011;40065;49.894;10.358;2023-09-30T08:27:55;7.30;;;2.20;;
54157;SDS011;40065;49.894;10.358;2023-09-30T08:32:57;6.03;;;1.80;;
54157;SDS011;40065;49.894;10.358;2023-09-30T08:37:58;4.47;;;1.67;;
54157;SDS011;40065;49.894;10.358;2023-09-30T08:43:00;6.65;;;1.77;;
54157;SDS011;40065;49.894;10.358;2023-09-30T08:48:05;5.57;;;1.52;;
54157;SDS011;40065;49.894;10.358;2023-09-30T08:53:09;4.72;;;1.33;;
54157;SDS011;40065;49.894;10.358;2023-09-30T08:58:12;2.63;;;1.25;;
54157;SDS011;40065;49.894;10.358;2023-09-30T09:03:14;4.70;;;1.80;;
54157;SDS011;40065;49.894;10.358;2023-09-30T09:08:16;5.28;;;1.50;;
54157;SDS011;40065;49.894;10.358;2023-09-30T09:13:22;6.40;;;1.60;;
54157;SDS011;40065;49.894;10.358;2023-09-30T09:18:31;5.72;;;1.70;;
54157;SDS011;40065;49.894;10.358;2023-09-30T09:23:38;3.45;;;1.13;;
54157;SDS011;40065;49.894;10.358;2023-09-30T09:28:41;4.35;;;1.48;;
54157;SDS011;40065;49.894;10.358;2023-09-30T09:38:49;4.95;;;1.60;;
54157;SDS011;40065;49.894;10.358;2023-09-30T09:43:55;5.82;;;1.38;;
54157;SDS011;40065;49.894;10.358;2023-09-30T09:49:00;4.63;;;1.40;;
54157;SDS011;40065;49.894;10.358;2023-09-30T09:54:03;4.77;;;1.60;;
54157;SDS011;40065;49.894;10.358;2023-09-30T09:59:08;6.75;;;1.85;;
54157;SDS011;40065;49.894;10.358;2023-09-30T10:04:12;6.40;;;2.15;;
54157;SDS011;40065;49.894;10.358;2023-09-30T10:09:16;5.97;;;1.65;;
54157;SDS011;40065;49.894;10.358;2023-09-30T10:14:31;8.00;;;2.10;;
54157;SDS011;40065;49.894;10.358;2023-09-30T10:19:34;7.47;;;2.22;;
54157;SDS011;40065;49.894;10.358;2023-09-30T10:24:36;5.90;;;2.17;;
54157;SDS011;40065;49.894;10.358;2023-09-30T10:29:41;4.03;;;2.13;;
54157;SDS011;40065;49.894;10.358;2023-09-30T10:34:49;6.43;;;2.45;;
54157;SDS011;40065;49.894;10.358;2023-09-30T10:45:00;6.38;;;2.67;;
54157;SDS011;40065;49.894;10.358;2023-09-30T10:50:02;7.30;;;3.33;;
54157;SDS011;40065;49.894;10.358;2023-09-30T11:00:11;9.05;;;2.63;;
54157;SDS011;40065;49.894;10.358;2023-09-30T11:05:16;5.95;;;2.85;;
54157;SDS011;40065;49.894;10.358;2023-09-30T11:10:19;6.75;;;2.80;;
54157;SDS011;40065;49.894;10.358;2023-09-30T11:15:21;6.68;;;2.97;;
54157;SDS011;40065;49.894;10.358;2023-09-30T11:20:23;6.95;;;2.65;;
54157;SDS011;40065;49.894;10.358;2023-09-30T11:25:25;5.82;;;2.88;;
54157;SDS011;40065;49.894;10.358;2023-09-30T11:30:27;6.43;;;3.08;;
54157;SDS011;40065;49.894;10.358;2023-09-30T11:35:29;6.50;;;3.08;;
54157;SDS011;40065;49.894;10.358;2023-09-30T11:40:31;5.70;;;2.60;;
54157;SDS011;40065;49.894;10.358;2023-09-30T11:45:35;5.80;;;2.85;;
54157;SDS011;40065;49.894;10.358;2023-09-30T11:50:46;7.47;;;3.00;;
54157;SDS011;40065;49.894;10.358;2023-09-30T11:55:49;5.77;;;2.40;;
54157;SDS011;40065;49.894;10.358;2023-09-30T12:00:53;8.15;;;2.90;;
54157;SDS011;40065;49.894;10.358;2023-09-30T12:05:55;8.50;;;3.47;;
54157;SDS011;40065;49.894;10.358;2023-09-30T12:10:57;7.65;;;3.25;;
54157;SDS011;40065;49.894;10.358;2023-09-30T12:16:00;8.95;;;3.13;;
54157;SDS011;40065;49.894;10.358;2023-09-30T12:21:05;9.27;;;2.97;;
54157;SDS011;40065;49.894;10.358;2023-09-30T12:26:11;6.82;;;3.08;;
54157;SDS011;40065;49.894;10.358;2023-09-30T12:31:17;21.67;;;4.03;;
54157;SDS011;40065;49.894;10.358;2023-09-30T12:36:20;6.73;;;3.20;;
54157;SDS011;40065;49.894;10.358;2023-09-30T12:46:25;14.45;;;3.75;;
54157;SDS011;40065;49.894;10.358;2023-09-30T12:51:27;6.72;;;2.88;;
54157;SDS011;40065;49.894;10.358;2023-09-30T12:56:29;11.18;;;3.40;;
54157;SDS011;40065;49.894;10.358;2023-09-30T13:01:31;7.82;;;3.20;;
54157;SDS011;40065;49.894;10.358;2023-09-30T13:06:36;8.43;;;3.47;;
54157;SDS011;40065;49.894;10.358;2023-09-30T13:11:38;19.00;;;3.55;;
54157;SDS011;40065;49.894;10.358;2023-09-30T13:16:40;8.13;;;3.43;;
54157;SDS011;40065;49.894;10.358;2023-09-30T13:21:42;6.18;;;2.90;;
54157;SDS011;40065;49.894;10.358;2023-09-30T13:26:45;12.20;;;4.00;;
54157;SDS011;40065;49.894;10.358;2023-09-30T13:31:47;12.15;;;3.60;;
54157;SDS011;40065;49.894;10.358;2023-09-30T13:36:49;8.60;;;3.40;;
54157;SDS011;40065;49.894;10.358;2023-09-30T13:41:51;8.00;;;3.30;;
54157;SDS011;40065;49.894;10.358;2023-09-30T13:46:53;6.63;;;3.35;;
54157;SDS011;40065;49.894;10.358;2023-09-30T13:51:55;9.52;;;3.35;;
54157;SDS011;40065;49.894;10.358;2023-09-30T13:56:57;8.05;;;3.30;;
54157;SDS011;40065;49.894;10.358;2023-09-30T14:01:59;10.23;;;3.90;;
54157;SDS011;40065;49.894;10.358;2023-09-30T14:07:02;8.40;;;3.60;;
54157;SDS011;40065;49.894;10.358;2023-09-30T14:12:04;7.93;;;3.60;;
54157;SDS011;40065;49.894;10.358;2023-09-30T14:17:06;7.93;;;3.22;;
54157;SDS011;40065;49.894;10.358;2023-09-30T14:22:16;7.43;;;3.38;;
54157;SDS011;40065;49.894;10.358;2023-09-30T14:27:18;7.32;;;3.20;;
54157;SDS011;40065;49.894;10.358;2023-09-30T14:32:21;7.40;;;3.10;;
54157;SDS011;40065;49.894;10.358;2023-09-30T14:37:24;9.10;;;3.17;;
54157;SDS011;40065;49.894;10.358;2023-09-30T14:42:26;7.78;;;2.85;;
54157;SDS011;40065;49.894;10.358;2023-09-30T14:47:29;8.20;;;3.35;;
54157;SDS011;40065;49.894;10.358;2023-09-30T14:52:31;7.35;;;3.10;;
54157;SDS011;40065;49.894;10.358;2023-09-30T14:57:33;10.93;;;4.18;;
54157;SDS011;40065;49.894;10.358;2023-09-30T15:02:35;8.27;;;3.00;;
54157;SDS011;40065;49.894;10.358;2023-09-30T15:07:40;9.95;;;3.25;;
54157;SDS011;40065;49.894;10.358;2023-09-30T15:12:41;8.02;;;3.35;;
54157;SDS011;40065;49.894;10.358;2023-09-30T15:17:43;11.45;;;3.50;;
54157;SDS011;40065;49.894;10.358;2023-09-30T15:22:45;8.13;;;3.10;;
54157;SDS011;40065;49.894;10.358;2023-09-30T15:27:47;8.50;;;3.72;;
54157;SDS011;40065;49.894;10.358;2023-09-30T15:32:49;9.18;;;3.97;;
54157;SDS011;40065;49.894;10.358;2023-09-30T15:37:51;12.65;;;3.70;;
54157;SDS011;40065;49.894;10.358;2023-09-30T15:42:53;8.63;;;3.40;;
54157;SDS011;40065;49.894;10.358;2023-09-30T15:47:55;9.43;;;3.95;;
54157;SDS011;40065;49.894;10.358;2023-09-30T15:52:57;7.80;;;3.65;;
54157;SDS011;40065;49.894;10.358;2023-09-30T15:57:59;7.80;;;3.45;;
54157;SDS011;40065;49.894;10.358;2023-09-30T16:03:00;7.93;;;3.25;;
54157;SDS011;40065;49.894;10.358;2023-09-30T16:08:03;8.20;;;3.78;;
54157;SDS011;40065;49.894;10.358;2023-09-30T16:18:10;8.18;;;4.05;;
54157;SDS011;40065;49.894;10.358;2023-09-30T16:23:12;9.27;;;3.40;;
54157;SDS011;40065;49.894;10.358;2023-09-30T16:28:13;7.35;;;3.00;;
54157;SDS011;40065;49.894;10.358;2023-09-30T16:33:15;6.80;;;3.10;;
54157;SDS011;40065;49.894;10.358;2023-09-30T16:38:20;10.40;;;4.00;;
54157;SDS011;40065;49.894;10.358;2023-09-30T16:43:23;8.80;;;3.55;;
54157;SDS011;40065;49.894;10.358;2023-09-30T16:48:24;8.60;;;3.72;;
54157;SDS011;40065;49.894;10.358;2023-09-30T16:53:26;8.38;;;3.80;;
54157;SDS011;40065;49.894;10.358;2023-09-30T16:58:29;13.48;;;4.60;;
54157;SDS011;40065;49.894;10.358;2023-09-30T17:03:30;8.65;;;4.10;;
54157;SDS011;40065;49.894;10.358;2023-09-30T17:08:32;9.68;;;4.45;;
54157;SDS011;40065;49.894;10.358;2023-09-30T17:13:35;11.00;;;4.75;;
54157;SDS011;40065;49.894;10.358;2023-09-30T17:18:37;10.60;;;4.50;;
54157;SDS011;40065;49.894;10.358;2023-09-30T17:23:39;11.18;;;3.80;;
54157;SDS011;40065;49.894;10.358;2023-09-30T17:28:42;12.05;;;4.00;;
54157;SDS011;40065;49.894;10.358;2023-09-30T17:33:45;12.38;;;4.72;;
54157;SDS011;40065;49.894;10.358;2023-09-30T17:38:47;11.15;;;4.32;;
54157;SDS011;40065;49.894;10.358;2023-09-30T17:43:49;9.43;;;4.03;;
54157;SDS011;40065;49.894;10.358;2023-09-30T17:48:51;11.80;;;4.05;;
54157;SDS011;40065;49.894;10.358;2023-09-30T17:53:53;12.20;;;4.13;;
54157;SDS011;40065;49.894;10.358;2023-09-30T17:58:56;14.40;;;4.13;;
54157;SDS011;40065;49.894;10.358;2023-09-30T18:03:58;10.32;;;3.70;;
54157;SDS011;40065;49.894;10.358;2023-09-30T18:09:00;7.82;;;3.85;;
54157;SDS011;40065;49.894;10.358;2023-09-30T18:14:01;10.75;;;3.88;;
54157;SDS011;40065;49.894;10.358;2023-09-30T18:19:03;13.48;;;3.88;;
54157;SDS011;40065;49.894;10.358;2023-09-30T18:24:05;7.80;;;4.10;;
54157;SDS011;40065;49.894;10.358;2023-09-30T18:29:07;7.43;;;3.90;;
54157;SDS011;40065;49.894;10.358;2023-09-30T18:34:10;8.60;;;3.80;;
54157;SDS011;40065;49.894;10.358;2023-09-30T18:39:12;10.40;;;4.97;;
54157;SDS011;40065;49.894;10.358;2023-09-30T18:49:28;9.48;;;4.22;;
54157;SDS011;40065;49.894;10.358;2023-09-30T18:54:30;8.95;;;4.15;;
54157;SDS011;40065;49.894;10.358;2023-09-30T18:59:32;8.13;;;3.90;;
54157;SDS011;40065;49.894;10.358;2023-09-30T19:04:34;9.75;;;3.75;;
54157;SDS011;40065;49.894;10.358;2023-09-30T19:09:36;7.90;;;3.90;;
54157;SDS011;40065;49.894;10.358;2023-09-30T19:14:38;12.73;;;4.80;;
54157;SDS011;40065;49.894;10.358;2023-09-30T19:19:42;8.50;;;4.35;;
54157;SDS011;40065;49.894;10.358;2023-09-30T19:24:45;9.88;;;4.10;;
54157;SDS011;40065;49.894;10.358;2023-09-30T19:29:49;9.80;;;4.33;;
54157;SDS011;40065;49.894;10.358;2023-09-30T19:34:51;9.75;;;3.72;;
54157;SDS011;40065;49.894;10.358;2023-09-30T19:39:52;7.88;;;3.90;;
54157;SDS011;40065;49.894;10.358;2023-09-30T19:44:55;9.85;;;4.30;;
54157;SDS011;40065;49.894;10.358;2023-09-30T19:49:56;10.65;;;4.25;;
54157;SDS011;40065;49.894;10.358;2023-09-30T19:54:58;8.75;;;4.38;;
54157;SDS011;40065;49.894;10.358;2023-09-30T20:00:00;10.77;;;3.95;;
54157;SDS011;40065;49.894;10.358;2023-09-30T20:05:05;14.07;;;4.30;;
54157;SDS011;40065;49.894;10.358;2023-09-30T20:10:07;8.55;;;4.38;;
54157;SDS011;40065;49.894;10.358;2023-09-30T20:15:10;11.07;;;4.68;;
54157;SDS011;40065;49.894;10.358;2023-09-30T20:20:12;11.48;;;3.92;;
54157;SDS011;40065;49.894;10.358;2023-09-30T20:25:17;10.27;;;4.68;;
54157;SDS011;40065;49.894;10.358;2023-09-30T20:30:19;9.73;;;4.72;;
54157;SDS011;40065;49.894;10.358;2023-09-30T20:35:21;10.38;;;5.50;;
54157;SDS011;40065;49.894;10.358;2023-09-30T20:40:24;8.95;;;4.53;;
54157;SDS011;40065;49.894;10.358;2023-09-30T20:45:32;10.40;;;4.65;;
54157;SDS011;40065;49.894;10.358;2023-09-30T20:50:34;8.00;;;4.40;;
54157;SDS011;40065;49.894;10.358;2023-09-30T20:55:35;10.35;;;4.40;;
54157;SDS011;40065;49.894;10.358;2023-09-30T21:00:37;9.20;;;4.05;;
54157;SDS011;40065;49.894;10.358;2023-09-30T21:05:41;9.43;;;4.33;;
54157;SDS011;40065;49.894;10.358;2023-09-30T21:10:44;10.68;;;4.65;;
54157;SDS011;40065;49.894;10.358;2023-09-30T21:15:46;9.98;;;4.47;;
54157;SDS011;40065;49.894;10.358;2023-09-30T21:20:48;10.32;;;4.45;;
54157;SDS011;40065;49.894;10.358;2023-09-30T21:25:50;15.45;;;4.25;;
54157;SDS011;40065;49.894;10.358;2023-09-30T21:30:52;13.00;;;4.55;;
54157;SDS011;40065;49.894;10.358;2023-09-30T21:35:55;7.90;;;4.07;;
54157;SDS011;40065;49.894;10.358;2023-09-30T21:40:58;10.65;;;4.57;;
54157;SDS011;40065;49.894;10.358;2023-09-30T21:46:00;7.05;;;3.67;;
54157;SDS011;40065;49.894;10.358;2023-09-30T21:51:01;9.25;;;4.22;;
54157;SDS011;40065;49.894;10.358;2023-09-30T21:56:03;9.88;;;4.65;;
54157;SDS011;40065;49.894;10.358;2023-09-30T22:01:06;7.55;;;3.55;;
54157;SDS011;40065;49.894;10.358;2023-09-30T22:06:08;9.45;;;4.28;;
54157;SDS011;40065;49.894;10.358;2023-09-30T22:11:10;11.00;;;4.32;;
54157;SDS011;40065;49.894;10.358;2023-09-30T22:16:14;9.82;;;4.47;;
54157;SDS011;40065;49.894;10.358;2023-09-30T22:21:16;8.50;;;4.00;;
54157;SDS011;40065;49.894;10.358;2023-09-30T22:26:18;11.55;;;4.78;;
54157;SDS011;40065;49.894;10.358;2023-09-30T22:31:19;9.00;;;4.10;;
54157;SDS011;40065;49.894;10.358;2023-09-30T22:36:21;9.25;;;3.90;;
54157;SDS011;40065;49.894;10.358;2023-09-30T22:41:40;9.50;;;4.13;;
54157;SDS011;40065;49.894;10.358;2023-09-30T22:46:42;10.90;;;4.35;;
54157;SDS011;40065;49.894;10.358;2023-09-30T22:51:45;8.55;;;4.32;;
54157;SDS011;40065;49.894;10.358;2023-09-30T22:56:47;9.88;;;4.50;;
54157;SDS011;40065;49.894;10.358;2023-09-30T23:01:49;11.18;;;4.93;;
54157;SDS011;40065;49.894;10.358;2023-09-30T23:06:51;10.32;;;4.82;;
54157;SDS011;40065;49.894;10.358;2023-09-30T23:11:52;13.48;;;4.32;;
54157;SDS011;40065;49.894;10.358;2023-09-30T23:16:54;10.68;;;4.40;;
54157;SDS011;40065;49.894;10.358;2023-09-30T23:21:56;6.85;;;3.83;;
54157;SDS011;40065;49.894;10.358;2023-09-30T23:26:59;8.65;;;3.78;;
54157;SDS011;40065;49.894;10.358;2023-09-30T23:32:06;9.25;;;4.00;;
54157;SDS011;40065;49.894;10.358;2023-09-30T23:37:08;9.25;;;5.10;;
54157;SDS011;40065;49.894;10.358;2023-09-30T23:42:10;12.43;;;5.90;;
54157;SDS011;40065;49.894;10.358;2023-09-30T23:47:12;12.05;;;5.55;;
54157;SDS011;40065;49.894;10.358;2023-09-30T23:52:14;11.85;;;5.18;;
54157;SDS011;40065;49.894;10.358;2023-09-30T23:57:16;9.90;;;4.82;;
